Time;durP1;ratioP1;P1;durP2;ratioP2;P2;SDS_P1;SDS_P2;PMS_P1;PMS_P2;Temp;Humidity;BMP_temperature;BMP_pressure;BME280_temperature;BME280_humidity;BME280_pressure;Samples;Min_cycle;Max_cycle;Signal;HPM_P1;HPM_P2
2023/03/20 00:00:17;;;;;;;4.75;1.70;;;10.70;99.90;;;;;;5067632;28;20398;-90
2023/03/20 00:02:43;;;;;;;2.25;1.50;;;10.70;99.90;;;;;;5071100;28;20107;-90
2023/03/20 00:05:17;;;;;;;3.33;1.65;;;10.70;99.90;;;;;;5071093;28;20036;-90
2023/03/20 00:07:43;;;;;;;2.07;1.47;;;10.60;99.90;;;;;;5063180;28;20029;-90
2023/03/20 00:10:10;;;;;;;4.88;1.98;;;10.60;99.90;;;;;;5067728;28;20052;-91
2023/03/20 00:12:36;;;;;;;3.17;1.63;;;10.60;99.90;;;;;;5073277;28;20490;-90
2023/03/20 00:15:05;;;;;;;3.25;1.70;;;10.50;99.90;;;;;;5076730;28;20037;-90
2023/03/20 00:17:31;;;;;;;1.85;1.27;;;10.50;99.90;;;;;;5084233;28;20028;-91
2023/03/20 00:19:56;;;;;;;2.38;1.70;;;10.50;99.90;;;;;;5065188;28;20088;-91
2023/03/20 00:22:23;;;;;;;2.85;1.77;;;10.40;99.90;;;;;;5080312;28;20024;-91
2023/03/20 00:24:49;;;;;;;5.30;2.30;;;10.40;99.90;;;;;;5061446;28;20445;-91
2023/03/20 00:27:16;;;;;;;4.18;1.50;;;10.40;99.90;;;;;;5078116;28;20173;-90
2023/03/20 00:29:42;;;;;;;3.42;1.55;;;10.30;99.90;;;;;;5070995;28;20021;-91
2023/03/20 00:32:12;;;;;;;1.77;1.45;;;10.20;99.90;;;;;;5073944;28;20541;-91
2023/03/20 00:34:37;;;;;;;2.17;1.50;;;10.20;99.90;;;;;;5065862;28;20546;-91
2023/03/20 00:37:04;;;;;;;4.25;1.75;;;10.20;99.90;;;;;;5061905;28;20112;-91
2023/03/20 00:39:30;;;;;;;4.63;1.67;;;10.10;99.90;;;;;;5070709;28;20498;-91
2023/03/20 00:42:01;;;;;;;1.85;1.50;;;10.10;99.90;;;;;;5084873;28;20024;-90
2023/03/20 00:44:33;;;;;;;7.13;2.50;;;10.10;99.90;;;;;;5070367;28;20133;-91
2023/03/20 00:47:05;;;;;;;3.80;1.95;;;10.00;99.90;;;;;;5072076;28;20116;-91
2023/03/20 00:49:32;;;;;;;4.75;1.65;;;10.00;99.90;;;;;;5061229;28;20323;-90
2023/03/20 00:52:00;;;;;;;2.13;1.42;;;10.00;99.90;;;;;;5064385;28;20032;-91
2023/03/20 00:54:26;;;;;;;3.05;1.60;;;9.90;99.90;;;;;;5083468;28;20476;-91
2023/03/20 00:56:59;;;;;;;3.58;1.15;;;9.90;99.90;;;;;;5068452;28;20025;-90
2023/03/20 00:59:31;;;;;;;3.70;1.70;;;9.80;99.90;;;;;;5064219;28;20037;-90
2023/03/20 01:01:59;;;;;;;4.57;2.13;;;9.80;99.90;;;;;;5073831;28;20032;-91
2023/03/20 01:04:32;;;;;;;2.20;1.50;;;9.70;99.90;;;;;;5071403;28;20051;-91
2023/03/20 01:06:58;;;;;;;4.30;1.65;;;9.70;99.90;;;;;;5067462;28;20032;-91
2023/03/20 01:09:23;;;;;;;1.80;1.30;;;9.70;99.90;;;;;;5068054;28;20031;-91
2023/03/20 01:11:49;;;;;;;4.15;1.80;;;9.60;99.90;;;;;;5069869;28;20024;-92
2023/03/20 01:14:15;;;;;;;3.05;1.65;;;9.60;99.90;;;;;;5066549;28;20559;-90
2023/03/20 01:16:41;;;;;;;2.95;1.60;;;9.60;99.90;;;;;;5080580;28;20027;-91
2023/03/20 01:19:13;;;;;;;1.50;1.38;;;9.60;99.90;;;;;;5071893;28;20077;-91
2023/03/20 01:21:40;;;;;;;2.50;1.48;;;9.60;99.90;;;;;;5076643;28;20060;-90
2023/03/20 01:24:06;;;;;;;2.60;1.90;;;9.60;99.90;;;;;;5074128;28;20401;-89
2023/03/20 01:26:34;;;;;;;6.75;3.30;;;9.70;99.90;;;;;;5075157;28;20108;-90
2023/03/20 01:29:00;;;;;;;7.85;2.30;;;9.80;99.90;;;;;;5071206;28;20449;-90
2023/03/20 01:31:25;;;;;;;3.63;2.22;;;9.90;99.90;;;;;;5072799;28;20115;-90
2023/03/20 01:33:51;;;;;;;3.80;1.98;;;10.00;99.90;;;;;;5066751;28;20038;-91
2023/03/20 01:36:21;;;;;;;2.60;2.03;;;10.10;99.90;;;;;;5067653;28;20056;-90
2023/03/20 01:38:54;;;;;;;2.08;1.88;;;10.20;99.90;;;;;;5065979;28;20060;-90
2023/03/20 01:41:21;;;;;;;2.85;2.00;;;10.30;99.90;;;;;;5076625;28;20037;-92
2023/03/20 01:43:47;;;;;;;2.80;2.25;;;10.30;99.90;;;;;;5067895;28;20032;-91
2023/03/20 01:46:22;;;;;;;2.50;1.80;;;10.40;99.90;;;;;;5075416;28;20389;-89
2023/03/20 01:48:52;;;;;;;3.38;2.13;;;10.40;99.90;;;;;;5062890;28;20025;-90
2023/03/20 01:51:22;;;;;;;3.00;1.90;;;10.30;99.90;;;;;;5068411;28;20048;-90
2023/03/20 01:53:53;;;;;;;2.42;1.70;;;10.30;99.90;;;;;;5078201;28;20024;-91
2023/03/20 01:56:20;;;;;;;3.78;2.00;;;10.30;99.90;;;;;;5067938;28;20032;-91
2023/03/20 01:58:50;;;;;;;3.60;1.90;;;10.30;99.90;;;;;;5071275;28;20075;-91
2023/03/20 02:01:17;;;;;;;2.97;1.98;;;10.30;99.90;;;;;;5077845;28;20043;-89
2023/03/20 02:03:47;;;;;;;3.15;2.50;;;10.30;99.90;;;;;;5066808;28;20040;-90
2023/03/20 02:06:12;;;;;;;3.92;2.20;;;10.30;99.90;;;;;;5072687;28;20043;-91
2023/03/20 02:08:46;;;;;;;2.13;1.67;;;10.30;99.90;;;;;;5072748;28;20024;-92
2023/03/20 02:11:12;;;;;;;2.75;1.88;;;10.20;99.90;;;;;;5066835;28;20032;-90
2023/03/20 02:13:39;;;;;;;3.30;1.80;;;10.20;99.90;;;;;;5073600;28;20264;-91
2023/03/20 02:16:09;;;;;;;4.30;2.00;;;10.20;99.90;;;;;;5069999;28;20079;-91
2023/03/20 02:18:37;;;;;;;2.05;1.95;;;10.10;99.90;;;;;;5068434;28;20073;-91
2023/03/20 02:21:15;;;;;;;1.92;1.77;;;10.10;99.90;;;;;;5073732;28;20115;-90
2023/03/20 02:24:11;;;;;;;6.40;2.30;;;10.10;99.90;;;;;;5070976;28;20019;-91
2023/03/20 02:26:54;;;;;;;3.20;2.53;;;10.00;99.90;;;;;;5072972;28;20064;-90
2023/03/20 02:29:53;;;;;;;2.15;2.00;;;10.00;99.90;;;;;;5070895;28;21146;-91
2023/03/20 02:32:30;;;;;;;2.88;2.58;;;10.10;99.90;;;;;;5066009;28;20032;-90
2023/03/20 02:35:27;;;;;;;2.38;1.85;;;10.10;99.90;;;;;;5065195;28;20032;-91
2023/03/20 02:37:56;;;;;;;2.58;2.35;;;10.10;99.90;;;;;;5058293;28;20082;-91
2023/03/20 02:40:45;;;;;;;4.18;2.88;;;10.10;99.90;;;;;;5085989;28;20350;-91
2023/03/20 02:43:22;;;;;;;2.88;2.30;;;10.10;99.90;;;;;;5070424;28;20036;-90
2023/03/20 02:45:58;;;;;;;5.22;2.58;;;10.10;99.90;;;;;;5062168;28;20021;-91
2023/03/20 02:48:31;;;;;;;3.80;2.50;;;10.10;99.90;;;;;;5075250;28;20065;-91
2023/03/20 02:51:09;;;;;;;4.00;2.35;;;10.00;99.90;;;;;;5069110;28;20044;-91
2023/03/20 02:53:54;;;;;;;2.88;2.20;;;10.00;99.90;;;;;;5079913;28;20032;-90
2023/03/20 02:56:22;;;;;;;2.78;2.03;;;10.00;99.90;;;;;;5067583;28;20040;-91
2023/03/20 02:58:52;;;;;;;4.70;2.80;;;9.90;99.90;;;;;;5055524;28;20111;-91
2023/03/20 03:01:34;;;;;;;13.95;9.48;;;10.00;99.90;;;;;;5062637;28;20386;-91
2023/03/20 03:04:07;;;;;;;7.72;5.88;;;10.00;99.90;;;;;;5065802;28;20033;-91
2023/03/20 03:06:36;;;;;;;7.15;5.22;;;10.10;99.90;;;;;;5075249;28;20051;-91
2023/03/20 03:09:46;;;;;;;16.42;9.73;;;10.10;99.90;;;;;;5062499;28;20110;-90
2023/03/20 03:12:23;;;;;;;10.25;7.88;;;10.10;99.90;;;;;;5048136;28;20032;-91
2023/03/20 03:15:02;;;;;;;8.55;6.65;;;10.10;99.90;;;;;;5065518;28;20043;-92
2023/03/20 03:17:32;;;;;;;10.85;7.97;;;10.10;99.90;;;;;;5059693;28;20336;-91
2023/03/20 03:20:08;;;;;;;12.07;9.18;;;10.10;99.90;;;;;;5063869;28;20076;-91
2023/03/20 03:22:35;;;;;;;15.93;11.35;;;10.10;99.90;;;;;;5059046;28;20093;-90
2023/03/20 03:25:01;;;;;;;18.50;12.25;;;10.10;99.90;;;;;;5075422;28;20044;-90
2023/03/20 03:27:39;;;;;;;18.52;12.13;;;10.10;99.90;;;;;;5068412;28;20131;-91
2023/03/20 03:30:10;;;;;;;21.38;14.48;;;10.10;99.90;;;;;;5075316;28;20025;-91
2023/03/20 03:32:45;;;;;;;17.83;12.00;;;10.20;99.90;;;;;;5063325;28;20032;-90
2023/03/20 03:35:19;;;;;;;18.10;12.27;;;10.20;99.90;;;;;;5086422;28;20047;-91
2023/03/20 03:38:01;;;;;;;15.05;10.90;;;10.20;99.90;;;;;;5077733;28;20028;-91
2023/03/20 03:40:51;;;;;;;16.10;10.80;;;10.20;99.90;;;;;;5053748;28;20124;-90
2023/03/20 03:43:45;;;;;;;15.25;10.65;;;10.30;99.90;;;;;;5050205;28;20224;-90
2023/03/20 03:46:45;;;;;;;13.80;9.82;;;10.30;99.90;;;;;;5041119;28;20120;-91
2023/03/20 03:49:16;;;;;;;9.70;7.18;;;10.30;99.90;;;;;;5050312;28;20123;-90
2023/03/20 03:51:44;;;;;;;11.15;7.18;;;10.30;99.90;;;;;;5052762;28;20132;-91
2023/03/20 03:54:15;;;;;;;11.13;8.13;;;10.30;99.90;;;;;;5055270;28;20020;-90
2023/03/20 03:56:44;;;;;;;14.40;8.88;;;10.30;99.90;;;;;;5052523;28;20035;-91
2023/03/20 03:59:30;;;;;;;18.60;13.07;;;10.30;99.90;;;;;;5043028;28;20037;-88
2023/03/20 04:01:57;;;;;;;;;;;10.30;99.90;;;;;;5053007;28;20032;-91
2023/03/20 04:04:25;;;;;;;25.45;16.92;;;10.30;99.90;;;;;;5051131;28;20124;-87
2023/03/20 04:06:50;;;;;;;33.88;21.27;;;10.30;99.90;;;;;;5041275;28;20029;-89
2023/03/20 04:09:16;;;;;;;38.40;24.20;;;10.30;99.90;;;;;;5050622;28;20029;-88
2023/03/20 04:11:44;;;;;;;47.28;26.48;;;10.30;99.90;;;;;;5060621;28;20108;-85
2023/03/20 04:14:10;;;;;;;49.60;32.00;;;10.30;99.90;;;;;;5051445;28;20036;-89
2023/03/20 04:16:36;;;;;;;61.08;37.42;;;10.20;99.90;;;;;;5064356;28;20509;-84
2023/03/20 04:19:02;;;;;;;74.50;42.75;;;10.20;99.90;;;;;;5056924;28;20040;-84
2023/03/20 04:21:27;;;;;;;76.28;44.80;;;10.20;99.90;;;;;;5054833;28;20028;-86
2023/03/20 04:24:08;;;;;;;76.93;44.55;;;10.10;99.90;;;;;;5052116;28;20041;-90
2023/03/20 04:26:35;;;;;;;92.35;49.60;;;9.90;99.90;;;;;;5048072;28;20025;-84
2023/03/20 04:29:04;;;;;;;84.43;47.63;;;9.90;99.90;;;;;;5050410;28;20036;-90
2023/03/20 04:31:29;;;;;;;94.43;51.17;;;9.80;99.90;;;;;;5053983;28;20032;-90
2023/03/20 04:33:55;;;;;;;98.65;50.35;;;9.70;99.90;;;;;;5054744;28;20029;-91
2023/03/20 04:36:21;;;;;;;102.60;50.78;;;9.70;99.90;;;;;;5055180;28;20120;-89
2023/03/20 04:38:46;;;;;;;101.43;50.00;;;9.70;99.90;;;;;;5055459;28;20132;-90
2023/03/20 04:41:15;;;;;;;100.50;51.20;;;9.60;99.90;;;;;;5065904;28;20071;-90
2023/03/20 04:43:44;;;;;;;99.82;50.45;;;9.60;99.90;;;;;;5078929;28;20028;-88
2023/03/20 04:46:10;;;;;;;94.57;47.83;;;9.60;99.90;;;;;;5053258;28;20036;-88
2023/03/20 04:48:35;;;;;;;99.50;49.25;;;9.50;99.90;;;;;;5074823;28;20078;-90
2023/03/20 04:51:01;;;;;;;97.43;51.30;;;9.50;99.90;;;;;;5082130;28;20115;-90
2023/03/20 04:53:27;;;;;;;96.60;48.70;;;9.50;99.90;;;;;;5070967;28;20025;-91
2023/03/20 04:55:55;;;;;;;93.43;46.33;;;9.50;99.90;;;;;;5072072;28;20548;-91
2023/03/20 04:58:21;;;;;;;90.07;49.45;;;9.50;99.90;;;;;;5072496;28;20043;-90
2023/03/20 05:00:46;;;;;;;92.53;49.03;;;9.50;99.90;;;;;;5079560;28;20129;-90
2023/03/20 05:03:12;;;;;;;89.57;47.08;;;9.50;99.90;;;;;;5074549;28;20029;-90
2023/03/20 05:05:40;;;;;;;91.43;46.97;;;9.50;99.90;;;;;;5075361;28;20100;-90
2023/03/20 05:08:06;;;;;;;90.35;49.00;;;9.50;99.90;;;;;;5077444;28;20550;-90
2023/03/20 05:10:32;;;;;;;85.05;44.30;;;9.50;99.90;;;;;;5074246;28;20025;-91
2023/03/20 05:12:57;;;;;;;101.60;49.83;;;9.50;99.90;;;;;;5077703;28;20497;-90
2023/03/20 05:15:26;;;;;;;92.53;47.63;;;9.50;99.90;;;;;;5075358;28;20036;-89
2023/03/20 05:17:51;;;;;;;90.60;47.88;;;9.50;99.90;;;;;;5079814;28;20028;-90
2023/03/20 05:20:17;;;;;;;83.57;42.58;;;9.50;99.90;;;;;;5073387;28;20062;-90
2023/03/20 05:22:50;;;;;;;67.30;37.58;;;9.50;99.90;;;;;;5073693;28;20197;-90
2023/03/20 05:25:16;;;;;;;60.08;31.58;;;9.50;99.90;;;;;;5068871;28;20017;-91
2023/03/20 05:27:42;;;;;;;94.68;48.40;;;9.50;99.90;;;;;;5075112;28;20318;-91
2023/03/20 05:30:09;;;;;;;84.97;45.40;;;9.50;99.90;;;;;;5067114;28;20060;-89
2023/03/20 05:32:35;;;;;;;80.75;43.40;;;9.60;99.90;;;;;;5069082;28;20024;-90
2023/03/20 05:35:01;;;;;;;88.07;45.47;;;9.60;99.90;;;;;;5074921;28;20043;-90
2023/03/20 05:37:30;;;;;;;78.85;43.00;;;9.60;99.90;;;;;;5080239;28;20394;-91
2023/03/20 05:39:55;;;;;;;82.45;43.60;;;9.60;99.90;;;;;;5072831;28;20448;-91
2023/03/20 05:42:23;;;;;;;80.10;39.85;;;9.60;99.90;;;;;;5069693;28;20040;-91
2023/03/20 05:44:51;;;;;;;74.40;40.53;;;9.60;99.90;;;;;;5073487;28;20028;-90
2023/03/20 05:47:19;;;;;;;87.03;44.50;;;9.60;99.90;;;;;;5068534;28;20106;-91
2023/03/20 05:49:45;;;;;;;86.18;45.97;;;9.60;99.90;;;;;;5070438;28;20028;-90
2023/03/20 05:52:14;;;;;;;81.63;41.42;;;9.60;99.90;;;;;;5066874;28;20082;-91
2023/03/20 05:54:40;;;;;;;66.35;35.53;;;9.60;99.90;;;;;;5068139;28;20032;-90
2023/03/20 05:57:05;;;;;;;63.10;35.55;;;9.60;99.90;;;;;;5070240;28;20025;-91
2023/03/20 05:59:31;;;;;;;79.82;43.55;;;9.60;99.90;;;;;;5079544;28;20037;-89
2023/03/20 06:02:00;;;;;;;79.28;44.20;;;9.60;99.90;;;;;;5070838;28;20028;-90
2023/03/20 06:04:25;;;;;;;77.53;40.80;;;9.60;99.90;;;;;;5072316;28;20044;-90
2023/03/20 06:06:54;;;;;;;74.82;38.33;;;9.60;99.90;;;;;;5069839;28;20059;-90
2023/03/20 06:09:20;;;;;;;92.53;46.95;;;9.60;99.90;;;;;;5061297;28;20031;-90
2023/03/20 06:11:45;;;;;;;77.07;44.47;;;9.60;99.90;;;;;;5058951;28;20507;-91
2023/03/20 06:14:11;;;;;;;82.82;44.75;;;9.60;99.90;;;;;;5066794;28;20086;-91
2023/03/20 06:16:37;;;;;;;84.85;44.95;;;9.60;99.90;;;;;;5068149;28;20025;-91
2023/03/20 06:19:02;;;;;;;78.93;41.95;;;9.70;99.90;;;;;;5081871;28;20285;-90
2023/03/20 06:21:28;;;;;;;80.70;40.72;;;9.70;99.90;;;;;;5073984;28;20052;-91
2023/03/20 06:23:58;;;;;;;83.90;44.05;;;9.70;99.90;;;;;;5073357;28;20028;-93
2023/03/20 06:26:24;;;;;;;80.57;43.10;;;9.70;99.90;;;;;;5074277;28;20029;-92
2023/03/20 06:28:50;;;;;;;81.60;43.70;;;9.70;99.90;;;;;;5064279;28;20052;-89
2023/03/20 06:31:18;;;;;;;79.72;41.67;;;9.70;99.90;;;;;;5074326;28;20031;-91
2023/03/20 06:33:45;;;;;;;81.22;43.78;;;9.70;99.90;;;;;;5063073;28;20552;-91
2023/03/20 06:36:11;;;;;;;83.70;43.10;;;9.60;99.90;;;;;;5057118;28;20032;-91
2023/03/20 06:38:36;;;;;;;77.72;42.22;;;9.60;99.90;;;;;;5063718;28;20123;-90
2023/03/20 06:41:02;;;;;;;85.60;44.53;;;9.60;99.90;;;;;;5078116;28;20485;-91
2023/03/20 06:43:28;;;;;;;80.13;42.28;;;9.70;99.90;;;;;;5071137;28;20477;-91
2023/03/20 06:45:56;;;;;;;87.00;43.03;;;9.80;99.90;;;;;;5070604;28;20096;-92
2023/03/20 06:48:22;;;;;;;76.38;41.53;;;9.80;99.90;;;;;;5067476;28;20024;-90
2023/03/20 06:50:49;;;;;;;73.13;38.20;;;9.80;99.90;;;;;;5086828;28;20465;-90
2023/03/20 06:53:15;;;;;;;80.22;43.13;;;9.80;99.90;;;;;;5076702;28;20036;-92
2023/03/20 06:55:42;;;;;;;81.90;41.03;;;9.80;99.90;;;;;;5073553;28;20126;-91
2023/03/20 06:58:07;;;;;;;83.28;41.03;;;9.90;99.90;;;;;;5077918;28;20024;-91
2023/03/20 07:00:33;;;;;;;76.05;40.10;;;9.80;99.90;;;;;;5062974;28;20043;-90
2023/03/20 07:02:58;;;;;;;80.22;41.80;;;9.80;99.90;;;;;;5066833;28;20028;-90
2023/03/20 07:05:24;;;;;;;75.82;40.50;;;9.80;99.90;;;;;;5063800;28;20426;-90
2023/03/20 07:07:50;;;;;;;84.28;42.30;;;9.80;99.90;;;;;;5059064;28;20035;-91
2023/03/20 07:10:16;;;;;;;82.53;39.33;;;9.80;99.90;;;;;;5056959;28;20024;-90
2023/03/20 07:12:42;;;;;;;77.57;40.80;;;9.90;99.90;;;;;;5063917;28;20111;-90
2023/03/20 07:15:10;;;;;;;76.70;38.53;;;9.90;99.90;;;;;;5062043;28;20035;-91
2023/03/20 07:17:36;;;;;;;73.10;35.92;;;9.90;99.90;;;;;;5066628;28;20150;-91
2023/03/20 07:20:02;;;;;;;68.18;36.83;;;10.00;99.90;;;;;;5062577;28;20135;-90
2023/03/20 07:22:30;;;;;;;79.40;39.28;;;9.90;99.90;;;;;;5056514;28;20450;-90
2023/03/20 07:24:56;;;;;;;63.85;34.00;;;9.90;99.90;;;;;;5060075;28;20130;-90
2023/03/20 07:27:22;;;;;;;63.03;31.20;;;9.90;99.90;;;;;;5067262;28;20472;-91
2023/03/20 07:29:48;;;;;;;72.35;35.90;;;10.00;99.90;;;;;;5085277;28;20101;-91
2023/03/20 07:32:13;;;;;;;62.35;33.33;;;10.00;99.90;;;;;;5081481;28;20044;-90
2023/03/20 07:34:39;;;;;;;65.13;32.88;;;10.00;99.90;;;;;;5076975;28;20029;-90
2023/03/20 07:37:05;;;;;;;67.72;35.10;;;10.00;99.90;;;;;;5080868;28;20040;-90
2023/03/20 07:39:30;;;;;;;63.97;34.17;;;10.00;99.90;;;;;;5079048;28;20059;-90
2023/03/20 07:41:56;;;;;;;70.10;35.63;;;10.00;99.90;;;;;;5083567;28;20036;-89
2023/03/20 07:44:22;;;;;;;67.90;35.40;;;10.00;99.90;;;;;;5081303;28;20111;-90
2023/03/20 07:46:47;;;;;;;65.50;34.53;;;10.00;99.90;;;;;;5077390;28;20093;-91
2023/03/20 07:49:17;;;;;;;61.80;32.58;;;10.00;99.90;;;;;;5081308;28;20025;-91
2023/03/20 07:51:43;;;;;;;62.95;34.47;;;10.00;99.90;;;;;;5082969;28;20035;-90
2023/03/20 07:54:09;;;;;;;69.43;36.55;;;10.00;99.90;;;;;;5088363;28;20028;-90
2023/03/20 07:56:35;;;;;;;70.82;34.78;;;10.00;99.90;;;;;;5078568;28;20036;-91
2023/03/20 07:59:00;;;;;;;67.57;34.40;;;10.00;99.90;;;;;;5087309;28;20433;-91
2023/03/20 08:01:26;;;;;;;58.28;31.98;;;10.00;99.90;;;;;;5078399;28;20536;-91
2023/03/20 08:03:51;;;;;;;51.40;27.38;;;10.00;99.90;;;;;;5076908;28;20423;-90
2023/03/20 08:06:17;;;;;;;57.95;29.65;;;9.90;99.90;;;;;;5078780;28;20028;-91
2023/03/20 08:08:43;;;;;;;51.58;27.27;;;9.90;99.90;;;;;;5085989;28;20111;-92
2023/03/20 08:11:11;;;;;;;51.10;28.77;;;9.90;99.90;;;;;;5087670;28;20035;-90
2023/03/20 08:13:36;;;;;;;56.13;26.83;;;9.90;99.90;;;;;;5070461;28;20032;-90
2023/03/20 08:16:02;;;;;;;51.88;27.92;;;9.90;99.90;;;;;;5072595;28;20082;-90
2023/03/20 08:18:28;;;;;;;51.53;26.60;;;9.90;99.90;;;;;;5065846;28;20294;-91
2023/03/20 08:20:54;;;;;;;74.38;36.67;;;9.90;99.90;;;;;;5079217;28;20412;-93
2023/03/20 08:23:20;;;;;;;77.72;37.85;;;10.00;99.90;;;;;;5067526;28;20037;-91
2023/03/20 08:25:48;;;;;;;62.35;32.03;;;10.00;99.90;;;;;;5070387;28;20484;-91
2023/03/20 08:28:14;;;;;;;65.72;32.42;;;10.00;99.90;;;;;;5087871;28;20024;-91
2023/03/20 08:30:39;;;;;;;71.30;34.92;;;10.00;99.90;;;;;;5062947;28;20020;-90
2023/03/20 08:36:27;;;;;;;74.10;34.60;;;10.00;99.90;;;;;;5063373;28;20039;-91
2023/03/20 08:38:52;;;;;;;56.85;31.00;;;10.00;99.90;;;;;;5064241;28;20045;-89
2023/03/20 08:41:19;;;;;;;56.83;29.83;;;10.00;99.90;;;;;;5070502;28;20082;-93
2023/03/20 08:43:46;;;;;;;53.40;27.58;;;10.00;99.90;;;;;;5077660;28;20017;-91
2023/03/20 08:46:12;;;;;;;56.20;29.58;;;9.90;99.90;;;;;;5064439;28;20060;-91
2023/03/20 08:48:37;;;;;;;72.57;36.10;;;10.00;99.90;;;;;;5082146;28;20380;-91
2023/03/20 08:51:03;;;;;;;58.22;32.35;;;10.00;99.90;;;;;;5071578;28;20032;-89
2023/03/20 08:53:28;;;;;;;54.30;28.42;;;10.00;99.90;;;;;;5066970;28;20052;-90
2023/03/20 08:55:55;;;;;;;55.45;28.33;;;10.10;99.90;;;;;;5072153;28;20035;-90
2023/03/20 08:58:22;;;;;;;51.83;28.27;;;10.00;99.90;;;;;;5064625;28;20047;-91
2023/03/20 09:00:47;;;;;;;49.75;27.38;;;10.10;99.90;;;;;;5071616;28;20114;-91
2023/03/20 09:03:15;;;;;;;47.17;25.80;;;10.10;99.90;;;;;;5074461;28;20047;-90
2023/03/20 09:05:43;;;;;;;46.70;25.02;;;10.20;99.90;;;;;;5081402;28;20040;-92
2023/03/20 09:08:09;;;;;;;53.58;27.23;;;10.20;99.90;;;;;;5068328;28;20035;-91
2023/03/20 09:10:34;;;;;;;60.55;27.88;;;10.20;99.90;;;;;;5068076;28;20028;-90
2023/03/20 09:13:00;;;;;;;50.03;27.00;;;10.30;99.90;;;;;;5066722;28;20535;-90
2023/03/20 09:15:26;;;;;;;49.83;28.58;;;10.30;99.90;;;;;;5074010;28;20484;-91
2023/03/20 09:17:52;;;;;;;63.63;30.50;;;10.30;99.90;;;;;;5081410;28;20170;-91
2023/03/20 09:20:18;;;;;;;60.72;30.42;;;10.30;99.90;;;;;;5059809;28;20125;-90
2023/03/20 09:22:44;;;;;;;52.90;27.77;;;10.40;99.90;;;;;;5080005;28;20031;-91
2023/03/20 09:25:10;;;;;;;60.13;31.40;;;10.40;99.90;;;;;;5071396;28;20039;-92
2023/03/20 09:27:36;;;;;;;60.72;30.35;;;10.40;99.90;;;;;;5074966;28;20078;-91
2023/03/20 09:30:03;;;;;;;50.45;29.88;;;10.40;99.90;;;;;;5066686;28;20028;-91
2023/03/20 09:32:28;;;;;;;69.40;34.42;;;10.40;99.90;;;;;;5068896;28;20036;-91
2023/03/20 09:34:54;;;;;;;51.63;24.70;;;10.40;99.90;;;;;;5081826;28;20024;-90
2023/03/20 09:37:19;;;;;;;36.58;20.60;;;10.50;99.90;;;;;;5077811;28;20024;-91
2023/03/20 09:39:45;;;;;;;43.55;20.48;;;10.40;99.90;;;;;;5065263;28;20041;-91
2023/03/20 09:42:27;;;;;;;46.90;23.63;;;10.50;99.90;;;;;;5064413;28;20438;-90
2023/03/20 09:45:15;;;;;;;41.20;20.15;;;10.60;99.90;;;;;;5067525;28;20040;-90
2023/03/20 09:48:08;;;;;;;39.58;19.75;;;10.70;99.90;;;;;;5057970;28;20044;-90
2023/03/20 09:51:00;;;;;;;35.40;18.65;;;10.70;99.90;;;;;;5058937;28;20082;-87
2023/03/20 09:53:36;;;;;;;29.85;17.38;;;10.70;99.90;;;;;;5075424;28;20115;-91
2023/03/20 09:56:03;;;;;;;28.13;16.08;;;10.90;99.90;;;;;;5057759;28;20381;-91
2023/03/20 09:58:34;;;;;;;26.98;15.13;;;10.90;99.90;;;;;;5065409;28;20474;-93
2023/03/20 10:01:02;;;;;;;28.23;15.00;;;10.90;99.90;;;;;;5059742;28;20044;-92
2023/03/20 10:03:36;;;;;;;31.38;14.43;;;10.90;99.90;;;;;;5066168;28;20036;-89
2023/03/20 10:06:11;;;;;;;23.92;13.75;;;10.90;99.90;;;;;;5070220;28;20093;-89
2023/03/20 10:08:38;;;;;;;29.80;15.23;;;10.90;99.90;;;;;;5061465;28;20031;-87
2023/03/20 10:11:22;;;;;;;27.02;14.55;;;10.90;99.90;;;;;;5065511;28;20037;-90
2023/03/20 10:13:48;;;;;;;26.27;14.80;;;10.90;99.90;;;;;;5065296;28;20019;-89
2023/03/20 10:16:31;;;;;;;24.98;13.18;;;10.90;99.90;;;;;;5066807;28;20111;-92
2023/03/20 10:19:18;;;;;;;25.75;14.70;;;10.90;99.90;;;;;;5066953;28;20107;-90
2023/03/20 10:21:48;;;;;;;33.75;16.83;;;10.80;99.90;;;;;;5068014;28;20023;-91
2023/03/20 10:24:21;;;;;;;30.15;15.02;;;10.90;99.90;;;;;;5064987;28;20401;-91
2023/03/20 10:26:52;;;;;;;39.25;17.48;;;10.90;99.90;;;;;;5061447;28;20473;-91
2023/03/20 10:29:24;;;;;;;32.35;16.60;;;10.90;99.90;;;;;;5081432;28;20069;-90
2023/03/20 10:31:54;;;;;;;28.80;15.80;;;11.00;99.90;;;;;;5074208;28;20028;-91
2023/03/20 10:34:39;;;;;;;25.92;14.18;;;11.00;99.90;;;;;;5069721;28;20028;-90
2023/03/20 10:37:46;;;;;;;29.35;14.85;;;11.00;99.90;;;;;;5082315;28;20036;-92
2023/03/20 10:40:30;;;;;;;29.48;15.07;;;11.00;99.90;;;;;;5021174;28;20044;-90
2023/03/20 10:43:02;;;;;;;30.67;15.57;;;11.10;99.90;;;;;;5039795;28;20520;-92
2023/03/20 10:45:43;;;;;;;26.42;14.90;;;11.10;99.90;;;;;;5058366;28;20501;-90
2023/03/20 10:48:26;;;;;;;27.75;15.50;;;11.20;99.90;;;;;;5063334;28;20042;-90
2023/03/20 10:50:56;;;;;;;28.35;16.55;;;11.30;99.90;;;;;;5074531;28;20028;-90
2023/03/20 10:53:30;;;;;;;29.00;14.73;;;11.30;99.90;;;;;;5080622;28;20093;-87
2023/03/20 10:56:00;;;;;;;30.35;15.30;;;11.30;99.90;;;;;;5079929;28;20055;-91
2023/03/20 10:58:30;;;;;;;32.17;15.45;;;11.30;99.90;;;;;;5079231;28;20024;-91
2023/03/20 11:00:58;;;;;;;29.35;16.40;;;11.30;99.90;;;;;;5071947;28;20143;-90
2023/03/20 11:03:29;;;;;;;33.75;16.77;;;11.30;99.90;;;;;;5067278;28;20089;-92
2023/03/20 11:06:00;;;;;;;30.55;16.17;;;11.30;99.90;;;;;;5061065;28;20447;-82
2023/03/20 11:08:35;;;;;;;25.73;15.13;;;11.30;99.90;;;;;;5065402;28;20024;-86
2023/03/20 11:11:02;;;;;;;30.70;16.13;;;11.30;99.90;;;;;;5064785;28;20440;-83
2023/03/20 11:13:41;;;;;;;29.08;16.55;;;11.30;99.90;;;;;;5067439;28;20036;-88
2023/03/20 11:16:18;;;;;;;29.73;15.35;;;11.20;99.90;;;;;;5070837;28;20040;-84
2023/03/20 11:18:44;;;;;;;30.15;17.23;;;11.20;99.90;;;;;;5066488;28;20037;-89
2023/03/20 11:21:20;;;;;;;27.75;15.18;;;11.20;99.90;;;;;;5077687;28;20047;-90
2023/03/20 11:23:47;;;;;;;28.88;15.63;;;11.20;99.90;;;;;;5084017;28;20023;-90
2023/03/20 11:26:15;;;;;;;25.73;13.75;;;11.20;99.90;;;;;;5084293;28;20032;-92
2023/03/20 11:28:47;;;;;;;25.05;14.02;;;11.20;99.90;;;;;;5084464;28;20056;-88
2023/03/20 11:31:13;;;;;;;29.10;15.15;;;11.20;99.90;;;;;;5082902;28;20084;-91
2023/03/20 11:34:10;;;;;;;29.52;15.23;;;11.20;99.90;;;;;;5064279;28;20373;-91
2023/03/20 11:36:38;;;;;;;28.70;15.68;;;11.20;99.90;;;;;;5078366;28;20027;-89
2023/03/20 11:39:20;;;;;;;29.15;14.70;;;11.30;99.90;;;;;;5070268;28;20084;-90
2023/03/20 11:41:53;;;;;;;26.35;14.18;;;11.20;99.90;;;;;;5075529;28;20447;-90
2023/03/20 11:44:27;;;;;;;26.52;14.70;;;11.20;99.90;;;;;;5080076;28;20477;-89
2023/03/20 11:47:00;;;;;;;26.25;14.77;;;11.10;99.90;;;;;;5075330;28;20024;-91
2023/03/20 11:49:26;;;;;;;24.00;13.70;;;11.10;99.90;;;;;;5083254;28;20063;-92
2023/03/20 11:51:54;;;;;;;25.20;14.07;;;11.10;99.90;;;;;;5061723;28;20032;-85
2023/03/20 11:54:22;;;;;;;27.48;15.30;;;11.10;99.90;;;;;;5074104;28;20137;-90
2023/03/20 11:56:59;;;;;;;29.45;15.75;;;11.10;99.90;;;;;;5077267;28;20035;-91
2023/03/20 11:59:33;;;;;;;25.98;14.07;;;11.10;99.90;;;;;;5076831;28;20123;-89
2023/03/20 12:02:01;;;;;;;25.95;14.23;;;11.10;99.90;;;;;;5086562;28;20032;-91
2023/03/20 12:04:41;;;;;;;27.33;14.82;;;11.10;99.90;;;;;;5076064;28;20041;-91
2023/03/20 12:07:18;;;;;;;35.28;16.90;;;11.10;99.90;;;;;;5080402;28;20503;-88
2023/03/20 12:10:06;;;;;;;29.48;14.40;;;11.10;99.90;;;;;;5080118;28;20043;-91
2023/03/20 12:12:40;;;;;;;27.60;14.77;;;11.10;99.90;;;;;;5072092;28;20028;-90
2023/03/20 12:15:12;;;;;;;27.23;15.15;;;11.10;99.90;;;;;;5063448;28;20024;-91
2023/03/20 12:17:41;;;;;;;29.25;15.45;;;11.20;99.90;;;;;;5084193;28;20029;-90
2023/03/20 12:20:23;;;;;;;30.30;16.13;;;11.20;99.90;;;;;;5075551;28;20089;-91
2023/03/20 12:22:53;;;;;;;32.75;15.38;;;11.20;99.90;;;;;;5075095;28;20097;-91
2023/03/20 12:25:49;;;;;;;32.53;17.85;;;11.20;99.90;;;;;;5079220;28;20028;-85
2023/03/20 12:28:40;;;;;;;30.38;15.90;;;11.30;99.90;;;;;;5075620;28;20489;-90
2023/03/20 16:38:53;;;;;;;22.48;11.55;;;11.60;99.90;;;;;;5015678;23;20405;-84
2023/03/20 16:41:39;;;;;;;17.85;10.60;;;11.50;99.90;;;;;;5034023;28;20506;-84
2023/03/20 16:44:10;;;;;;;;;;;11.40;99.90;;;;;;5029760;28;20059;-84
2023/03/20 16:46:51;;;;;;;21.38;11.48;;;11.50;99.90;;;;;;5038385;28;19941;-83
2023/03/20 16:49:57;;;;;;;14.93;9.73;;;11.40;99.90;;;;;;5033789;28;20041;-85
2023/03/20 16:52:27;;;;;;;18.52;8.30;;;11.40;99.90;;;;;;5031178;28;20487;-84
2023/03/20 16:54:56;;;;;;;16.05;9.38;;;11.30;99.90;;;;;;5042488;28;20020;-84
2023/03/20 16:57:22;;;;;;;17.50;9.80;;;11.30;99.90;;;;;;5039262;28;20033;-84
2023/03/20 16:59:50;;;;;;;21.25;11.98;;;11.20;99.90;;;;;;5046754;28;20036;-84
2023/03/20 17:02:34;;;;;;;13.50;9.38;;;11.20;99.90;;;;;;5042225;28;20509;-84